• Join FlightAware (Why Join?)
  • Login
  • US Flag 
11:10PM EDT


 

Airport Tracker/Info


-or-


 

Live Flight TrackerFlight Track Log ✈ UAL623 ✈ 10-May-2013 ✈ KCLE - KORD

Flight Track Log - Related Links

Times and Time Zones

All times are in EDT time to prevent confusion due to time zone crossing. See the UAL623 flight status page for this flight to view local times or setup timezone preferences in your user account.

Time Position Orientation Groundspeed Altitude Reporting Facility
EDT Latitude Longitude Course Direction KTS MPH feet Rate Location/Type
06:26PM 41.3917 -81.8867 270° West 155 178 1,900  Level Cleveland Center
06:26PM 41.3847 -81.9447 261° West 197 227 3,600 2,340 Climbing Cleveland Center
06:27PM 41.3733 -82.0275 260° West 253 291 6,200 2,820 Climbing Cleveland Center
06:28PM 41.3477 -82.1926 263° West  Level FlightAware Approximate
06:28PM 41.3619 -82.1075 259° West 267 307 9,300  Level Cleveland Center
06:29PM 41.3371 -82.3093 263° West  Level FlightAware Approximate
06:29PM 41.3500 -82.2094 261° West 282 325 11,200  Level Cleveland Center
06:30PM 41.3171 -82.4234 254° West  Level FlightAware Approximate
06:30PM 41.3336 -82.3392 260° West 331 381 12,700  Level Cleveland Center
06:31PM 41.3000 -82.5376 270° West  Level FlightAware Approximate
06:31PM 41.3169 -82.4603 260° West 349 402 17,900  Level Cleveland Center
06:32PM 41.3006 -82.5786 260° West 321 369 20,000 2,100 Climbing Cleveland Center
06:33PM 41.2186 -82.6119 197° South 264 304 22,200 1,500 Climbing Cleveland Center
06:34PM 41.1228 -82.6064 177° South 292 336 23,000 360 Climbing Cleveland Center
06:35PM 41.0447 -82.6508 203° Southwest 304 350 23,000  Level Cleveland Center
06:36PM 41.0219 -82.7683 256° West 292 336 23,000  Level Cleveland Center
06:37PM 41.0911 -82.8450 320° Northwest 287 330 23,000 420 Level Cleveland Center
06:38PM 41.1969 -82.8681 351° North 293 337 23,900 1,080 Climbing Cleveland Center
06:39PM 41.3008 -82.8911 351° North 353 406 25,200 1,320 Climbing Cleveland Center
06:40PM 41.4067 -82.9114 352° North 380 437 26,600 1,200 Climbing Cleveland Center
06:41PM 41.4825 -82.9753 328° Northwest 380 437 27,700 1,140 Climbing Cleveland Center
06:42PM 41.4611 -83.0964 257° West 288 331 28,900 1,140 Climbing Cleveland Center
06:43PM 41.4047 -83.1992 234° Southwest 294 338 30,000 540 Climbing Cleveland Center
06:44PM 41.3542 -83.3081 238° Southwest 323 372 30,000  Level Cleveland Center
06:45PM 41.3550 -83.4408 271° West 337 388 30,000  Level Cleveland Center
06:46PM 41.3767 -83.5744 282° West 350 403 30,000  Level Cleveland Center
06:47PM 41.3756 -83.7019 269° West 356 410 30,000  Level Cleveland Center
06:48PM 41.3553 -83.8281 258° West 350 403 30,000  Level Cleveland Center
06:51PM 41.3086 -84.1328 259° West 383 441 30,000  Level Chicago Center
06:52PM 41.3064 -84.2917 269° West 425 489 30,000  Level Chicago Center
06:53PM 41.3033 -84.4511 269° West 431 496 30,000  Level Chicago Center
06:54PM 41.3006 -84.6425 269° West 432 497 30,000  Level Chicago Center
06:55PM 41.2969 -84.8019 268° West 432 497 30,000  Level Chicago Center
06:56PM 41.2933 -84.9600 268° West 429 494 30,000  Level Chicago Center
06:57PM 41.2889 -85.1164 268° West 424 488 30,000 -360 Level Chicago Center
06:58PM 41.2850 -85.2728 268° West 423 487 29,300 -840 Descending Chicago Center
06:59PM 41.2814 -85.4206 268° West 408 470 28,300 -1,020 Descending Chicago Center
07:00PM 41.2769 -85.5650 268° West 393 452 27,300 -1,080 Descending Chicago Center
07:01PM 41.2719 -85.7342 268° West 381 438 26,100 -1,140 Descending Chicago Center
07:02PM 41.2753 -85.8767 272° West 395 455 25,000 -540 Descending Chicago Center
07:03PM 41.3058 -86.0167 286° West 396 456 25,000  Level Chicago Center
07:04PM 41.3375 -86.1572 287° West 397 457 25,000  Level Chicago Center
07:05PM 41.3700 -86.2978 287° West 397 457 25,000 -1,260 Level Chicago Center
07:06PM 41.4025 -86.4394 287° West 400 460 22,400 -2,160 Descending Chicago Center
07:07PM 41.4336 -86.5775 287° West 390 449 20,600 -1,740 Descending Chicago Center
07:08PM 41.4636 -86.7136 286° West 365 420 18,900 -1,800 Descending Chicago Center
07:09PM 41.4992 -86.8656 287° West 360 414 16,900 -1,800 Descending Chicago Center
07:10PM 41.5258 -86.9889 286° West 352 405 15,300 -1,560 Descending Chicago Center
07:11PM 41.5522 -87.1094 286° West 344 396 13,700 -1,680 Descending Chicago Center
07:12PM 41.5667 -87.1667 289° West 337 388 13,000 -1,260 Descending Chicago TRACON
07:13PM 41.6000 -87.2667 294° West 341 392 12,000 -600 Descending Chicago TRACON
07:14PM 41.6347 -87.3281 307° West 346 398 12,000 -480 Level Chicago Center
07:15PM 41.7050 -87.4450 309° West 339 390 11,200 -540 Descending Chicago Center
07:16PM 41.7653 -87.5408 310° West 340 391 11,000 -240 Descending Chicago Center
07:17PM 41.8161 -87.6425 304° West 336 387 10,800 -240 Descending Chicago Center
07:18PM 41.8556 -87.7350 300° West 296 341 10,600 -420 Descending Chicago Center
07:19PM 41.8853 -87.8078 299° West 228 262 10,000 -780 Descending Chicago Center
07:19PM 41.8833 -87.8333 264° West 203 234 9,600 -780 Descending Chicago TRACON
07:20PM 41.8833 -87.9167 270° West 191 220 9,000 -300 Descending Chicago TRACON
07:21PM 41.8833 -87.9833 270° West 190 219 9,000  Level Chicago TRACON
07:22PM 41.8833 -88.0500 270° West 187 215 9,000  Level Chicago TRACON
07:23PM 41.8833 -88.1167 270° West 178 205 9,000 -120 Level Chicago TRACON
07:24PM 41.8833 -88.1667 270° West 174 200 8,800 -540 Descending Chicago TRACON
07:25PM 41.8833 -88.2431 270° West 181 208 8,000 -420 Descending Chicago Center
07:26PM 41.8844 -88.3122 271° West 186 214 8,000  Level Chicago Center
07:27PM 41.8831 -88.3828 269° West 189 217 8,000  Level Chicago Center
07:28PM 41.8825 -88.4564 269° West 196 226 8,000  Level Chicago Center
07:29PM 41.8906 -88.5267 279° West 204 235 8,100  Climbing Chicago Center
07:30PM 41.9472 -88.5064 15° North 200 230 8,100 -540 Level Chicago Center
07:31PM 41.9636 -88.4344 73° East 205 236 7,100 -1,080 Descending Chicago Center
07:32PM 41.9675 -88.3606 86° East 200 230 5,900 -1,020 Descending Chicago Center
07:33PM 41.9672 -88.2867 90° East 200 230 5,000 -540 Descending Chicago Center
07:34PM 41.9678 -88.2164 89° East 191 220 4,800 -240 Descending Chicago Center